Daska Weather



Daska's Current Weather

Temprature 20o smoke

smoke

Rain: 0 %

Min Temprature20o
Max Temprature20o
Humidity77
Wind Speed0.78 m/h
Sun Rise05:27:03
Sun Set18:35:24
Current Time: 21-Apr-2019 05:13:25
Lat/Lon: 32.34, 74.35




Daska's Geo Location



Daska's Weather Forecast

Time Overall Temp Min Temp Max Temp Humidity Wind Speed Rain
21-Apr-2019 (Sun)
08:00:00 clear sky 25.300 25.300 27.679 45 1.44 m/h 0 %
11:00:00 clear sky 32.270 32.270 33.850 30 0.86 m/h 0 %
14:00:00 clear sky 34.260 34.260 35.050 23 2.46 m/h 0 %
17:00:00 clear sky 34.750 34.750 34.750 22 2.27 m/h 0 %
20:00:00 clear sky 29.450 29.450 29.450 30 1.76 m/h 0 %
23:00:00 clear sky 27.360 27.360 27.360 33 2.94 m/h 0 %
22-Apr-2019 (Mon)
02:00:00 clear sky 25.270 25.270 25.270 35 2.15 m/h 0 %
05:00:00 clear sky 23.834 23.834 23.834 37 1.71 m/h 0 %
08:00:00 clear sky 28.506 28.506 28.506 30 1.23 m/h 0 %
11:00:00 clear sky 34.820 34.820 34.820 21 1.61 m/h 0 %
14:00:00 clear sky 37.515 37.515 37.515 17 3.82 m/h 0 %
17:00:00 clear sky 36.731 36.731 36.731 18 4.21 m/h 0 %
20:00:00 clear sky 30.450 30.450 30.450 26 2.94 m/h 0 %
23:00:00 clear sky 28.396 28.396 28.396 29 3.1 m/h 0 %
23-Apr-2019 (Tue)
02:00:00 clear sky 26.477 26.477 26.477 31 3.05 m/h 0 %
05:00:00 few clouds 25.136 25.136 25.136 31 3.08 m/h 0 %
08:00:00 broken clouds 29.867 29.867 29.867 23 0.86 m/h 0 %
11:00:00 broken clouds 36.350 36.350 36.350 16 1.81 m/h 0 %
14:00:00 scattered clouds 39.550 39.550 39.550 14 4.36 m/h 0 %
17:00:00 few clouds 37.950 37.950 37.950 15 3.91 m/h 0 %
20:00:00 clear sky 31.528 31.528 31.528 21 2.31 m/h 0 %
23:00:00 clear sky 29.450 29.450 29.450 23 3.88 m/h 0 %
24-Apr-2019 (Wed)
02:00:00 scattered clouds 27.482 27.482 27.482 22 3.17 m/h 0 %
05:00:00 broken clouds 26.394 26.394 26.394 23 1.66 m/h 0 %
08:00:00 overcast clouds 31.150 31.150 31.150 19 2.2 m/h 0 %
11:00:00 broken clouds 38.609 38.609 38.609 11 4.42 m/h 0 %
14:00:00 scattered clouds 41.350 41.350 41.350 10 4.11 m/h 0 %
17:00:00 scattered clouds 37.950 37.950 37.950 13 3.07 m/h 0 %
20:00:00 light rain 32.955 32.955 32.955 20 1.55 m/h 44 %
23:00:00 overcast clouds 29.945 29.945 29.945 22 3.62 m/h 0 %
25-Apr-2019 (Thu)
02:00:00 overcast clouds 27.650 27.650 27.650 33 6.26 m/h 0 %
05:00:00 overcast clouds 27.982 27.982 27.982 27 3.02 m/h 0 %
08:00:00 overcast clouds 30.420 30.420 30.420 26 2.86 m/h 0 %
11:00:00 overcast clouds 34.690 34.690 34.690 19 3.25 m/h 0 %
14:00:00 broken clouds 38.950 38.950 38.950 11 2.55 m/h 0 %
17:00:00 scattered clouds 38.711 38.711 38.711 11 1.82 m/h 0 %
20:00:00 clear sky 30.925 30.925 30.925 17 4.04 m/h 0 %
23:00:00 few clouds 28.443 28.443 28.443 16 3.54 m/h 0 %
26-Apr-2019 (Fri)
02:00:00 overcast clouds 26.632 26.632 26.632 18 1.84 m/h 0 %
05:00:00 light rain 25.286 25.286 25.286 22 2.33 m/h 19 %

Famous Cities (60)